sensor_id;sensor_type;location;lat;lon;timestamp;P1;durP1;ratioP1;P2;durP2;ratioP2
84121;SDS011;74217;51.106;17.084;2023-11-18T00:00:53;4.57;;;2.13;;
84121;SDS011;74217;51.106;17.084;2023-11-18T00:03:43;3.30;;;1.92;;
84121;SDS011;74217;51.106;17.084;2023-11-18T00:06:28;3.92;;;2.25;;
84121;SDS011;74217;51.106;17.084;2023-11-18T00:09:12;5.55;;;2.20;;
84121;SDS011;74217;51.106;17.084;2023-11-18T00:11:57;4.72;;;2.40;;
84121;SDS011;74217;51.106;17.084;2023-11-18T00:14:42;3.58;;;2.15;;
84121;SDS011;74217;51.106;17.084;2023-11-18T00:17:27;6.60;;;2.30;;
84121;SDS011;74217;51.106;17.084;2023-11-18T00:20:12;4.10;;;2.03;;
84121;SDS011;74217;51.106;17.084;2023-11-18T00:22:57;2.85;;;1.98;;
84121;SDS011;74217;51.106;17.084;2023-11-18T00:25:42;4.05;;;2.30;;
84121;SDS011;74217;51.106;17.084;2023-11-18T00:28:29;4.05;;;2.00;;
84121;SDS011;74217;51.106;17.084;2023-11-18T00:31:13;2.97;;;2.30;;
84121;SDS011;74217;51.106;17.084;2023-11-18T00:33:58;11.88;;;2.63;;
84121;SDS011;74217;51.106;17.084;2023-11-18T00:36:42;3.40;;;2.08;;
84121;SDS011;74217;51.106;17.084;2023-11-18T00:39:27;3.67;;;1.92;;
84121;SDS011;74217;51.106;17.084;2023-11-18T00:42:12;4.35;;;2.03;;
84121;SDS011;74217;51.106;17.084;2023-11-18T00:44:56;3.95;;;2.10;;
84121;SDS011;74217;51.106;17.084;2023-11-18T00:47:41;3.60;;;2.20;;
84121;SDS011;74217;51.106;17.084;2023-11-18T00:50:26;2.42;;;1.98;;
84121;SDS011;74217;51.106;17.084;2023-11-18T00:53:11;4.05;;;2.42;;
84121;SDS011;74217;51.106;17.084;2023-11-18T00:55:55;3.75;;;1.95;;
84121;SDS011;74217;51.106;17.084;2023-11-18T00:58:40;3.15;;;2.13;;
84121;SDS011;74217;51.106;17.084;2023-11-18T01:01:24;4.60;;;2.05;;
84121;SDS011;74217;51.106;17.084;2023-11-18T01:04:09;5.30;;;2.00;;
84121;SDS011;74217;51.106;17.084;2023-11-18T01:06:53;2.42;;;1.55;;
84121;SDS011;74217;51.106;17.084;2023-11-18T01:09:38;4.28;;;2.30;;
84121;SDS011;74217;51.106;17.084;2023-11-18T01:12:23;7.03;;;2.63;;
84121;SDS011;74217;51.106;17.084;2023-11-18T01:15:07;4.40;;;2.03;;
84121;SDS011;74217;51.106;17.084;2023-11-18T01:17:54;4.88;;;2.28;;
84121;SDS011;74217;51.106;17.084;2023-11-18T01:20:38;5.10;;;2.60;;
84121;SDS011;74217;51.106;17.084;2023-11-18T01:23:23;4.75;;;2.17;;
84121;SDS011;74217;51.106;17.084;2023-11-18T01:26:08;3.00;;;2.13;;
84121;SDS011;74217;51.106;17.084;2023-11-18T01:28:52;5.55;;;2.30;;
84121;SDS011;74217;51.106;17.084;2023-11-18T01:31:40;4.00;;;1.90;;
84121;SDS011;74217;51.106;17.084;2023-11-18T01:34:25;4.22;;;2.33;;
84121;SDS011;74217;51.106;17.084;2023-11-18T01:37:13;4.55;;;1.70;;
84121;SDS011;74217;51.106;17.084;2023-11-18T01:40:02;5.35;;;1.90;;
84121;SDS011;74217;51.106;17.084;2023-11-18T01:42:53;3.55;;;1.77;;
84121;SDS011;74217;51.106;17.084;2023-11-18T01:45:41;3.28;;;1.95;;
84121;SDS011;74217;51.106;17.084;2023-11-18T01:48:27;2.53;;;2.13;;
84121;SDS011;74217;51.106;17.084;2023-11-18T01:51:15;2.15;;;1.63;;
84121;SDS011;74217;51.106;17.084;2023-11-18T01:54:04;4.22;;;2.13;;
84121;SDS011;74217;51.106;17.084;2023-11-18T01:56:52;3.92;;;2.08;;
84121;SDS011;74217;51.106;17.084;2023-11-18T01:59:38;5.18;;;2.05;;
84121;SDS011;74217;51.106;17.084;2023-11-18T02:02:25;3.83;;;1.92;;
84121;SDS011;74217;51.106;17.084;2023-11-18T02:05:13;3.33;;;1.75;;
84121;SDS011;74217;51.106;17.084;2023-11-18T02:08:01;3.03;;;1.75;;
84121;SDS011;74217;51.106;17.084;2023-11-18T02:10:55;2.17;;;1.50;;
84121;SDS011;74217;51.106;17.084;2023-11-18T02:13:47;1.83;;;1.70;;
84121;SDS011;74217;51.106;17.084;2023-11-18T02:16:33;2.60;;;1.70;;
84121;SDS011;74217;51.106;17.084;2023-11-18T02:19:21;2.67;;;1.60;;
84121;SDS011;74217;51.106;17.084;2023-11-18T02:22:10;3.13;;;1.95;;
84121;SDS011;74217;51.106;17.084;2023-11-18T02:24:57;3.85;;;1.67;;
84121;SDS011;74217;51.106;17.084;2023-11-18T02:27:46;4.50;;;1.85;;
84121;SDS011;74217;51.106;17.084;2023-11-18T02:30:32;5.80;;;2.05;;
84121;SDS011;74217;51.106;17.084;2023-11-18T02:33:36;3.53;;;1.63;;
84121;SDS011;74217;51.106;17.084;2023-11-18T02:36:31;2.10;;;1.73;;
84121;SDS011;74217;51.106;17.084;2023-11-18T02:39:26;2.35;;;1.60;;
84121;SDS011;74217;51.106;17.084;2023-11-18T02:42:13;3.38;;;1.73;;
84121;SDS011;74217;51.106;17.084;2023-11-18T02:44:58;3.38;;;1.52;;
84121;SDS011;74217;51.106;17.084;2023-11-18T02:47:44;2.72;;;1.75;;
84121;SDS011;74217;51.106;17.084;2023-11-18T02:50:29;5.70;;;1.90;;
84121;SDS011;74217;51.106;17.084;2023-11-18T02:53:13;2.42;;;1.80;;
84121;SDS011;74217;51.106;17.084;2023-11-18T02:55:58;2.30;;;1.75;;
84121;SDS011;74217;51.106;17.084;2023-11-18T02:58:46;3.05;;;1.55;;
84121;SDS011;74217;51.106;17.084;2023-11-18T03:01:34;3.33;;;1.67;;
84121;SDS011;74217;51.106;17.084;2023-11-18T03:04:18;4.30;;;1.70;;
84121;SDS011;74217;51.106;17.084;2023-11-18T03:07:03;5.00;;;1.83;;
84121;SDS011;74217;51.106;17.084;2023-11-18T03:09:48;2.25;;;1.63;;
84121;SDS011;74217;51.106;17.084;2023-11-18T03:12:32;3.30;;;2.08;;
84121;SDS011;74217;51.106;17.084;2023-11-18T03:15:16;7.88;;;2.17;;
84121;SDS011;74217;51.106;17.084;2023-11-18T03:18:01;2.40;;;1.65;;
84121;SDS011;74217;51.106;17.084;2023-11-18T03:20:46;2.28;;;1.75;;
84121;SDS011;74217;51.106;17.084;2023-11-18T03:23:30;3.45;;;1.85;;
84121;SDS011;74217;51.106;17.084;2023-11-18T03:26:16;5.22;;;1.67;;
84121;SDS011;74217;51.106;17.084;2023-11-18T03:29:00;2.00;;;1.52;;
84121;SDS011;74217;51.106;17.084;2023-11-18T03:31:45;2.35;;;1.63;;
84121;SDS011;74217;51.106;17.084;2023-11-18T03:34:32;4.00;;;1.77;;
84121;SDS011;74217;51.106;17.084;2023-11-18T03:37:16;2.45;;;1.80;;
84121;SDS011;74217;51.106;17.084;2023-11-18T03:40:01;3.20;;;1.75;;
84121;SDS011;74217;51.106;17.084;2023-11-18T03:42:45;3.97;;;1.58;;
84121;SDS011;74217;51.106;17.084;2023-11-18T03:45:30;1.83;;;1.30;;
84121;SDS011;74217;51.106;17.084;2023-11-18T03:48:15;4.43;;;1.90;;
84121;SDS011;74217;51.106;17.084;2023-11-18T03:51:00;3.83;;;1.73;;
84121;SDS011;74217;51.106;17.084;2023-11-18T03:53:45;4.82;;;2.00;;
84121;SDS011;74217;51.106;17.084;2023-11-18T03:56:30;2.08;;;1.67;;
84121;SDS011;74217;51.106;17.084;2023-11-18T03:59:14;2.70;;;1.67;;
84121;SDS011;74217;51.106;17.084;2023-11-18T04:01:59;2.53;;;2.25;;
84121;SDS011;74217;51.106;17.084;2023-11-18T04:04:43;3.63;;;2.05;;
84121;SDS011;74217;51.106;17.084;2023-11-18T04:07:28;2.08;;;1.65;;
84121;SDS011;74217;51.106;17.084;2023-11-18T04:10:12;1.90;;;1.60;;
84121;SDS011;74217;51.106;17.084;2023-11-18T04:12:57;2.75;;;1.70;;
84121;SDS011;74217;51.106;17.084;2023-11-18T04:15:42;3.28;;;1.75;;
84121;SDS011;74217;51.106;17.084;2023-11-18T04:18:27;3.83;;;1.60;;
84121;SDS011;74217;51.106;17.084;2023-11-18T04:21:11;3.25;;;1.60;;
84121;SDS011;74217;51.106;17.084;2023-11-18T04:23:57;2.92;;;2.00;;
84121;SDS011;74217;51.106;17.084;2023-11-18T04:26:41;2.58;;;2.00;;
84121;SDS011;74217;51.106;17.084;2023-11-18T04:29:26;2.35;;;1.73;;
84121;SDS011;74217;51.106;17.084;2023-11-18T04:32:11;3.35;;;1.83;;
84121;SDS011;74217;51.106;17.084;2023-11-18T04:34:58;3.55;;;1.80;;
84121;SDS011;74217;51.106;17.084;2023-11-18T04:37:44;4.10;;;1.50;;
84121;SDS011;74217;51.106;17.084;2023-11-18T04:40:30;2.50;;;1.60;;
84121;SDS011;74217;51.106;17.084;2023-11-18T04:43:14;1.85;;;1.50;;
84121;SDS011;74217;51.106;17.084;2023-11-18T04:45:59;3.50;;;1.70;;
84121;SDS011;74217;51.106;17.084;2023-11-18T04:48:44;3.13;;;1.40;;
84121;SDS011;74217;51.106;17.084;2023-11-18T04:51:29;2.40;;;1.58;;
84121;SDS011;74217;51.106;17.084;2023-11-18T04:54:13;4.50;;;1.40;;
84121;SDS011;74217;51.106;17.084;2023-11-18T04:56:58;2.65;;;1.33;;
84121;SDS011;74217;51.106;17.084;2023-11-18T04:59:42;4.05;;;1.65;;
84121;SDS011;74217;51.106;17.084;2023-11-18T05:02:28;2.28;;;1.55;;
84121;SDS011;74217;51.106;17.084;2023-11-18T05:05:12;4.22;;;1.75;;
84121;SDS011;74217;51.106;17.084;2023-11-18T05:07:59;2.05;;;1.50;;
84121;SDS011;74217;51.106;17.084;2023-11-18T05:10:45;2.35;;;1.58;;
84121;SDS011;74217;51.106;17.084;2023-11-18T05:13:31;2.97;;;1.90;;
84121;SDS011;74217;51.106;17.084;2023-11-18T05:16:16;3.10;;;1.75;;
84121;SDS011;74217;51.106;17.084;2023-11-18T05:19:00;3.70;;;1.70;;
84121;SDS011;74217;51.106;17.084;2023-11-18T05:21:45;2.70;;;1.60;;
84121;SDS011;74217;51.106;17.084;2023-11-18T05:24:33;1.60;;;1.50;;
84121;SDS011;74217;51.106;17.084;2023-11-18T05:27:18;3.72;;;1.52;;
84121;SDS011;74217;51.106;17.084;2023-11-18T05:30:03;2.78;;;1.63;;
84121;SDS011;74217;51.106;17.084;2023-11-18T05:32:49;5.03;;;1.85;;
84121;SDS011;74217;51.106;17.084;2023-11-18T05:35:34;2.30;;;1.55;;
84121;SDS011;74217;51.106;17.084;2023-11-18T05:38:20;3.25;;;1.73;;
84121;SDS011;74217;51.106;17.084;2023-11-18T05:41:10;2.05;;;1.40;;
84121;SDS011;74217;51.106;17.084;2023-11-18T05:44:00;2.25;;;1.50;;
84121;SDS011;74217;51.106;17.084;2023-11-18T05:46:45;3.25;;;1.50;;
84121;SDS011;74217;51.106;17.084;2023-11-18T05:49:30;2.65;;;1.85;;
84121;SDS011;74217;51.106;17.084;2023-11-18T05:52:15;7.68;;;1.88;;
84121;SDS011;74217;51.106;17.084;2023-11-18T05:54:59;2.28;;;1.60;;
84121;SDS011;74217;51.106;17.084;2023-11-18T05:57:44;2.42;;;1.52;;
84121;SDS011;74217;51.106;17.084;2023-11-18T06:00:29;2.25;;;1.73;;
84121;SDS011;74217;51.106;17.084;2023-11-18T06:03:15;1.85;;;1.23;;
84121;SDS011;74217;51.106;17.084;2023-11-18T06:05:59;1.55;;;1.40;;
84121;SDS011;74217;51.106;17.084;2023-11-18T06:08:44;2.20;;;1.40;;
84121;SDS011;74217;51.106;17.084;2023-11-18T06:11:28;3.38;;;1.85;;
84121;SDS011;74217;51.106;17.084;2023-11-18T06:14:15;2.47;;;1.40;;
84121;SDS011;74217;51.106;17.084;2023-11-18T06:17:00;1.80;;;1.30;;
84121;SDS011;74217;51.106;17.084;2023-11-18T06:19:45;2.38;;;1.70;;
84121;SDS011;74217;51.106;17.084;2023-11-18T06:22:29;2.78;;;1.63;;
84121;SDS011;74217;51.106;17.084;2023-11-18T06:25:14;3.35;;;1.48;;
84121;SDS011;74217;51.106;17.084;2023-11-18T06:27:58;3.15;;;1.30;;
84121;SDS011;74217;51.106;17.084;2023-11-18T06:30:43;3.75;;;1.50;;
84121;SDS011;74217;51.106;17.084;2023-11-18T06:33:27;5.75;;;1.50;;
84121;SDS011;74217;51.106;17.084;2023-11-18T06:39:05;2.45;;;1.48;;
84121;SDS011;74217;51.106;17.084;2023-11-18T06:41:51;3.72;;;1.48;;
84121;SDS011;74217;51.106;17.084;2023-11-18T06:44:36;4.05;;;1.60;;
84121;SDS011;74217;51.106;17.084;2023-11-18T06:47:20;2.40;;;1.50;;
84121;SDS011;74217;51.106;17.084;2023-11-18T06:50:04;2.35;;;1.60;;
84121;SDS011;74217;51.106;17.084;2023-11-18T06:52:52;1.90;;;1.67;;
84121;SDS011;74217;51.106;17.084;2023-11-18T06:55:37;2.58;;;1.60;;
84121;SDS011;74217;51.106;17.084;2023-11-18T06:58:22;2.20;;;1.73;;
84121;SDS011;74217;51.106;17.084;2023-11-18T07:01:06;3.92;;;1.40;;
84121;SDS011;74217;51.106;17.084;2023-11-18T07:03:52;3.28;;;1.65;;
84121;SDS011;74217;51.106;17.084;2023-11-18T07:06:37;1.50;;;1.35;;
84121;SDS011;74217;51.106;17.084;2023-11-18T07:09:22;3.78;;;1.80;;
84121;SDS011;74217;51.106;17.084;2023-11-18T07:12:10;3.33;;;1.95;;
84121;SDS011;74217;51.106;17.084;2023-11-18T07:14:54;4.25;;;1.90;;
84121;SDS011;74217;51.106;17.084;2023-11-18T07:17:39;7.57;;;2.50;;
84121;SDS011;74217;51.106;17.084;2023-11-18T07:20:24;6.22;;;1.95;;
84121;SDS011;74217;51.106;17.084;2023-11-18T07:23:09;6.38;;;1.90;;
84121;SDS011;74217;51.106;17.084;2023-11-18T07:25:53;8.48;;;2.22;;
84121;SDS011;74217;51.106;17.084;2023-11-18T07:28:38;5.80;;;1.95;;
84121;SDS011;74217;51.106;17.084;2023-11-18T07:31:22;6.35;;;1.73;;
84121;SDS011;74217;51.106;17.084;2023-11-18T07:36:53;4.57;;;1.92;;
84121;SDS011;74217;51.106;17.084;2023-11-18T07:39:39;3.65;;;1.80;;
84121;SDS011;74217;51.106;17.084;2023-11-18T07:42:33;5.13;;;2.60;;
84121;SDS011;74217;51.106;17.084;2023-11-18T07:45:20;5.25;;;2.30;;
84121;SDS011;74217;51.106;17.084;2023-11-18T07:48:08;3.53;;;1.70;;
84121;SDS011;74217;51.106;17.084;2023-11-18T07:50:53;5.53;;;1.80;;
84121;SDS011;74217;51.106;17.084;2023-11-18T07:53:38;4.13;;;1.98;;
84121;SDS011;74217;51.106;17.084;2023-11-18T07:56:22;3.53;;;2.05;;
84121;SDS011;74217;51.106;17.084;2023-11-18T07:59:07;5.28;;;2.67;;
84121;SDS011;74217;51.106;17.084;2023-11-18T08:01:52;5.32;;;2.25;;
84121;SDS011;74217;51.106;17.084;2023-11-18T08:09:58;9.43;;;7.40;;
84121;SDS011;74217;51.106;17.084;2023-11-18T08:12:43;11.10;;;8.20;;
84121;SDS011;74217;51.106;17.084;2023-11-18T08:15:28;11.18;;;8.00;;
84121;SDS011;74217;51.106;17.084;2023-11-18T08:18:14;13.05;;;7.93;;
84121;SDS011;74217;51.106;17.084;2023-11-18T08:20:58;9.57;;;7.50;;
84121;SDS011;74217;51.106;17.084;2023-11-18T08:23:44;10.13;;;7.07;;
84121;SDS011;74217;51.106;17.084;2023-11-18T08:26:29;10.18;;;7.53;;
84121;SDS011;74217;51.106;17.084;2023-11-18T08:29:14;9.43;;;7.88;;
84121;SDS011;74217;51.106;17.084;2023-11-18T08:31:58;11.77;;;8.20;;
84121;SDS011;74217;51.106;17.084;2023-11-18T08:34:43;11.90;;;8.15;;
84121;SDS011;74217;51.106;17.084;2023-11-18T08:37:29;11.98;;;8.05;;
84121;SDS011;74217;51.106;17.084;2023-11-18T08:40:14;11.60;;;7.90;;
84121;SDS011;74217;51.106;17.084;2023-11-18T08:43:06;13.02;;;9.30;;
84121;SDS011;74217;51.106;17.084;2023-11-18T08:45:52;16.40;;;8.77;;
84121;SDS011;74217;51.106;17.084;2023-11-18T08:48:36;11.18;;;8.68;;
84121;SDS011;74217;51.106;17.084;2023-11-18T08:51:22;12.90;;;9.52;;
84121;SDS011;74217;51.106;17.084;2023-11-18T08:54:10;12.40;;;8.68;;
84121;SDS011;74217;51.106;17.084;2023-11-18T08:57:09;13.73;;;9.65;;
84121;SDS011;74217;51.106;17.084;2023-11-18T09:00:11;15.55;;;9.85;;
84121;SDS011;74217;51.106;17.084;2023-11-18T09:03:16;14.77;;;8.35;;
84121;SDS011;74217;51.106;17.084;2023-11-18T09:06:02;15.45;;;10.27;;
84121;SDS011;74217;51.106;17.084;2023-11-18T09:08:49;14.38;;;8.85;;
84121;SDS011;74217;51.106;17.084;2023-11-18T09:11:37;14.73;;;9.85;;
84121;SDS011;74217;51.106;17.084;2023-11-18T09:14:25;14.43;;;8.82;;
84121;SDS011;74217;51.106;17.084;2023-11-18T09:17:10;17.85;;;10.18;;
84121;SDS011;74217;51.106;17.084;2023-11-18T09:19:55;13.27;;;9.18;;
84121;SDS011;74217;51.106;17.084;2023-11-18T09:22:40;14.98;;;8.95;;
84121;SDS011;74217;51.106;17.084;2023-11-18T09:25:24;14.40;;;9.27;;
84121;SDS011;74217;51.106;17.084;2023-11-18T09:28:09;13.55;;;9.65;;
84121;SDS011;74217;51.106;17.084;2023-11-18T09:30:54;13.85;;;8.55;;
84121;SDS011;74217;51.106;17.084;2023-11-18T09:33:41;12.90;;;8.48;;
84121;SDS011;74217;51.106;17.084;2023-11-18T09:36:36;14.68;;;8.98;;
84121;SDS011;74217;51.106;17.084;2023-11-18T09:39:20;13.43;;;8.60;;
84121;SDS011;74217;51.106;17.084;2023-11-18T09:42:21;14.20;;;7.57;;
84121;SDS011;74217;51.106;17.084;2023-11-18T09:45:07;11.80;;;8.27;;
84121;SDS011;74217;51.106;17.084;2023-11-18T09:47:58;18.63;;;8.65;;
84121;SDS011;74217;51.106;17.084;2023-11-18T09:50:45;12.15;;;7.85;;
84121;SDS011;74217;51.106;17.084;2023-11-18T09:53:34;12.32;;;8.25;;
84121;SDS011;74217;51.106;17.084;2023-11-18T10:02:14;12.45;;;8.73;;
84121;SDS011;74217;51.106;17.084;2023-11-18T10:04:59;13.48;;;8.60;;
84121;SDS011;74217;51.106;17.084;2023-11-18T10:07:44;12.00;;;8.18;;
84121;SDS011;74217;51.106;17.084;2023-11-18T10:10:34;13.15;;;8.02;;
84121;SDS011;74217;51.106;17.084;2023-11-18T10:13:22;12.27;;;7.72;;
84121;SDS011;74217;51.106;17.084;2023-11-18T10:16:08;11.60;;;7.43;;
84121;SDS011;74217;51.106;17.084;2023-11-18T10:18:52;13.52;;;7.75;;
84121;SDS011;74217;51.106;17.084;2023-11-18T10:21:38;11.20;;;6.28;;
84121;SDS011;74217;51.106;17.084;2023-11-18T10:24:23;11.80;;;8.18;;
84121;SDS011;74217;51.106;17.084;2023-11-18T10:27:09;11.18;;;6.95;;
84121;SDS011;74217;51.106;17.084;2023-11-18T10:29:56;13.10;;;7.05;;
84121;SDS011;74217;51.106;17.084;2023-11-18T10:33:00;10.98;;;7.53;;
84121;SDS011;74217;51.106;17.084;2023-11-18T10:35:50;10.18;;;7.30;;
84121;SDS011;74217;51.106;17.084;2023-11-18T10:38:38;10.93;;;6.78;;
84121;SDS011;74217;51.106;17.084;2023-11-18T10:41:27;8.30;;;6.75;;
84121;SDS011;74217;51.106;17.084;2023-11-18T10:44:15;11.65;;;7.32;;
84121;SDS011;74217;51.106;17.084;2023-11-18T10:46:59;11.70;;;7.88;;
84121;SDS011;74217;51.106;17.084;2023-11-18T10:49:45;10.25;;;7.55;;
84121;SDS011;74217;51.106;17.084;2023-11-18T10:52:30;9.75;;;7.28;;
84121;SDS011;74217;51.106;17.084;2023-11-18T10:55:19;9.95;;;6.45;;
84121;SDS011;74217;51.106;17.084;2023-11-18T10:58:03;10.75;;;7.93;;
84121;SDS011;74217;51.106;17.084;2023-11-18T11:00:49;12.45;;;7.53;;
84121;SDS011;74217;51.106;17.084;2023-11-18T11:03:35;12.13;;;7.55;;
84121;SDS011;74217;51.106;17.084;2023-11-18T11:06:20;8.63;;;6.22;;
84121;SDS011;74217;51.106;17.084;2023-11-18T11:09:07;10.02;;;6.60;;
84121;SDS011;74217;51.106;17.084;2023-11-18T11:12:16;10.50;;;7.63;;
84121;SDS011;74217;51.106;17.084;2023-11-18T11:15:01;9.45;;;6.82;;
84121;SDS011;74217;51.106;17.084;2023-11-18T11:17:54;7.57;;;5.60;;
84121;SDS011;74217;51.106;17.084;2023-11-18T11:20:42;8.73;;;6.28;;
84121;SDS011;74217;51.106;17.084;2023-11-18T11:23:45;7.50;;;5.75;;
84121;SDS011;74217;51.106;17.084;2023-11-18T11:26:45;10.60;;;6.80;;
84121;SDS011;74217;51.106;17.084;2023-11-18T11:29:42;10.50;;;6.78;;
84121;SDS011;74217;51.106;17.084;2023-11-18T11:32:58;9.45;;;6.35;;
84121;SDS011;74217;51.106;17.084;2023-11-18T11:35:52;9.38;;;6.82;;
84121;SDS011;74217;51.106;17.084;2023-11-18T11:38:41;12.55;;;7.72;;
84121;SDS011;74217;51.106;17.084;2023-11-18T11:41:30;10.45;;;7.38;;
84121;SDS011;74217;51.106;17.084;2023-11-18T11:44:18;14.95;;;7.85;;
84121;SDS011;74217;51.106;17.084;2023-11-18T11:47:05;16.40;;;11.13;;
84121;SDS011;74217;51.106;17.084;2023-11-18T11:52:47;14.88;;;10.48;;
84121;SDS011;74217;51.106;17.084;2023-11-18T11:58:35;18.45;;;10.98;;
84121;SDS011;74217;51.106;17.084;2023-11-18T12:01:27;16.58;;;10.10;;
84121;SDS011;74217;51.106;17.084;2023-11-18T12:04:20;14.02;;;10.07;;
84121;SDS011;74217;51.106;17.084;2023-11-18T12:07:12;15.80;;;10.40;;
84121;SDS011;74217;51.106;17.084;2023-11-18T12:10:00;17.33;;;11.15;;
84121;SDS011;74217;51.106;17.084;2023-11-18T12:12:50;19.67;;;12.02;;
84121;SDS011;74217;51.106;17.084;2023-11-18T12:15:52;15.60;;;10.05;;
84121;SDS011;74217;51.106;17.084;2023-11-18T12:24:38;14.27;;;9.00;;
84121;SDS011;74217;51.106;17.084;2023-11-18T12:33:14;17.55;;;10.77;;
84121;SDS011;74217;51.106;17.084;2023-11-18T12:36:29;15.82;;;9.43;;
84121;SDS011;74217;51.106;17.084;2023-11-18T12:40:17;14.80;;;9.93;;
84121;SDS011;74217;51.106;17.084;2023-11-18T12:43:00;12.57;;;9.60;;
84121;SDS011;74217;51.106;17.084;2023-11-18T12:46:11;15.35;;;9.77;;
84121;SDS011;74217;51.106;17.084;2023-11-18T12:49:07;15.65;;;9.45;;
84121;SDS011;74217;51.106;17.084;2023-11-18T12:51:59;14.00;;;9.65;;
84121;SDS011;74217;51.106;17.084;2023-11-18T12:54:44;15.65;;;10.90;;
84121;SDS011;74217;51.106;17.084;2023-11-18T12:57:35;16.65;;;10.43;;
84121;SDS011;74217;51.106;17.084;2023-11-18T13:00:22;16.83;;;10.18;;
84121;SDS011;74217;51.106;17.084;2023-11-18T13:03:11;15.05;;;10.38;;
84121;SDS011;74217;51.106;17.084;2023-11-18T13:05:59;15.65;;;9.68;;
84121;SDS011;74217;51.106;17.084;2023-11-18T13:08:44;15.13;;;9.85;;
84121;SDS011;74217;51.106;17.084;2023-11-18T13:11:29;15.98;;;11.43;;
84121;SDS011;74217;51.106;17.084;2023-11-18T13:14:14;15.15;;;10.88;;
84121;SDS011;74217;51.106;17.084;2023-11-18T13:17:01;14.93;;;9.75;;
84121;SDS011;74217;51.106;17.084;2023-11-18T13:19:50;13.90;;;9.52;;
84121;SDS011;74217;51.106;17.084;2023-11-18T13:22:38;15.98;;;11.05;;
84121;SDS011;74217;51.106;17.084;2023-11-18T13:25:23;16.00;;;11.23;;
84121;SDS011;74217;51.106;17.084;2023-11-18T13:28:07;15.82;;;9.65;;
84121;SDS011;74217;51.106;17.084;2023-11-18T13:30:54;18.45;;;10.68;;
84121;SDS011;74217;51.106;17.084;2023-11-18T13:33:38;13.25;;;8.85;;
84121;SDS011;74217;51.106;17.084;2023-11-18T13:36:24;14.65;;;9.10;;
84121;SDS011;74217;51.106;17.084;2023-11-18T13:39:08;16.52;;;10.77;;
84121;SDS011;74217;51.106;17.084;2023-11-18T13:45:11;14.60;;;9.48;;
84121;SDS011;74217;51.106;17.084;2023-11-18T13:47:59;17.45;;;11.55;;
84121;SDS011;74217;51.106;17.084;2023-11-18T13:50:44;17.00;;;10.27;;
84121;SDS011;74217;51.106;17.084;2023-11-18T13:53:29;15.43;;;9.75;;
84121;SDS011;74217;51.106;17.084;2023-11-18T13:56:15;14.32;;;10.90;;
84121;SDS011;74217;51.106;17.084;2023-11-18T13:59:03;17.27;;;10.98;;
84121;SDS011;74217;51.106;17.084;2023-11-18T14:01:49;14.52;;;10.02;;
84121;SDS011;74217;51.106;17.084;2023-11-18T14:04:36;16.73;;;10.57;;
84121;SDS011;74217;51.106;17.084;2023-11-18T14:07:22;19.10;;;10.52;;
84121;SDS011;74217;51.106;17.084;2023-11-18T14:10:08;15.75;;;9.52;;
84121;SDS011;74217;51.106;17.084;2023-11-18T14:13:04;14.70;;;9.20;;
84121;SDS011;74217;51.106;17.084;2023-11-18T14:15:57;14.65;;;9.70;;
84121;SDS011;74217;51.106;17.084;2023-11-18T14:18:41;17.83;;;9.27;;
84121;SDS011;74217;51.106;17.084;2023-11-18T14:21:26;13.90;;;9.60;;
84121;SDS011;74217;51.106;17.084;2023-11-18T14:24:10;16.13;;;10.85;;
84121;SDS011;74217;51.106;17.084;2023-11-18T14:26:56;16.80;;;10.82;;
84121;SDS011;74217;51.106;17.084;2023-11-18T14:29:40;16.08;;;10.60;;
84121;SDS011;74217;51.106;17.084;2023-11-18T14:32:25;15.00;;;9.15;;
84121;SDS011;74217;51.106;17.084;2023-11-18T14:35:10;15.75;;;10.52;;
84121;SDS011;74217;51.106;17.084;2023-11-18T14:37:56;14.75;;;9.93;;
84121;SDS011;74217;51.106;17.084;2023-11-18T14:40:40;17.30;;;10.07;;
84121;SDS011;74217;51.106;17.084;2023-11-18T14:43:25;15.80;;;11.15;;
84121;SDS011;74217;51.106;17.084;2023-11-18T14:46:11;18.38;;;10.32;;
84121;SDS011;74217;51.106;17.084;2023-11-18T14:48:57;15.88;;;10.55;;
84121;SDS011;74217;51.106;17.084;2023-11-18T14:51:43;15.95;;;10.25;;
84121;SDS011;74217;51.106;17.084;2023-11-18T14:54:31;15.95;;;10.05;;
84121;SDS011;74217;51.106;17.084;2023-11-18T14:57:20;16.65;;;10.98;;
84121;SDS011;74217;51.106;17.084;2023-11-18T15:00:05;17.38;;;12.45;;
84121;SDS011;74217;51.106;17.084;2023-11-18T15:02:52;16.30;;;11.80;;
84121;SDS011;74217;51.106;17.084;2023-11-18T15:05:39;19.52;;;11.98;;
84121;SDS011;74217;51.106;17.084;2023-11-18T15:08:24;15.93;;;10.23;;
84121;SDS011;74217;51.106;17.084;2023-11-18T15:11:09;16.75;;;11.45;;
84121;SDS011;74217;51.106;17.084;2023-11-18T15:13:53;17.50;;;10.95;;
84121;SDS011;74217;51.106;17.084;2023-11-18T15:16:39;18.50;;;12.13;;
84121;SDS011;74217;51.106;17.084;2023-11-18T15:19:24;20.60;;;12.63;;
84121;SDS011;74217;51.106;17.084;2023-11-18T15:22:11;21.98;;;12.23;;
84121;SDS011;74217;51.106;17.084;2023-11-18T15:24:56;15.57;;;10.65;;
84121;SDS011;74217;51.106;17.084;2023-11-18T15:27:44;19.05;;;12.52;;
84121;SDS011;74217;51.106;17.084;2023-11-18T15:30:29;14.43;;;10.77;;
84121;SDS011;74217;51.106;17.084;2023-11-18T15:33:14;18.60;;;11.38;;
84121;SDS011;74217;51.106;17.084;2023-11-18T15:35:59;19.70;;;11.63;;
84121;SDS011;74217;51.106;17.084;2023-11-18T15:38:45;20.75;;;11.20;;
84121;SDS011;74217;51.106;17.084;2023-11-18T15:41:30;18.98;;;12.63;;
84121;SDS011;74217;51.106;17.084;2023-11-18T15:44:15;18.10;;;11.70;;
84121;SDS011;74217;51.106;17.084;2023-11-18T15:47:01;22.25;;;13.15;;
84121;SDS011;74217;51.106;17.084;2023-11-18T15:49:45;22.58;;;13.25;;
84121;SDS011;74217;51.106;17.084;2023-11-18T15:52:30;20.65;;;12.23;;
84121;SDS011;74217;51.106;17.084;2023-11-18T15:55:18;21.23;;;13.48;;
84121;SDS011;74217;51.106;17.084;2023-11-18T15:58:03;31.88;;;19.88;;
84121;SDS011;74217;51.106;17.084;2023-11-18T16:00:48;29.92;;;16.95;;
84121;SDS011;74217;51.106;17.084;2023-11-18T16:03:36;31.75;;;20.83;;
84121;SDS011;74217;51.106;17.084;2023-11-18T16:06:21;34.65;;;23.58;;
84121;SDS011;74217;51.106;17.084;2023-11-18T16:09:06;41.08;;;25.58;;
84121;SDS011;74217;51.106;17.084;2023-11-18T16:11:51;34.55;;;20.65;;
84121;SDS011;74217;51.106;17.084;2023-11-18T16:14:36;32.15;;;20.90;;
84121;SDS011;74217;51.106;17.084;2023-11-18T16:17:20;27.10;;;17.30;;
84121;SDS011;74217;51.106;17.084;2023-11-18T16:20:06;31.98;;;16.50;;
84121;SDS011;74217;51.106;17.084;2023-11-18T16:22:59;27.58;;;14.60;;
84121;SDS011;74217;51.106;17.084;2023-11-18T16:25:47;25.17;;;14.13;;
84121;SDS011;74217;51.106;17.084;2023-11-18T16:28:32;24.77;;;14.90;;
84121;SDS011;74217;51.106;17.084;2023-11-18T16:31:16;29.17;;;17.23;;
84121;SDS011;74217;51.106;17.084;2023-11-18T16:34:02;34.25;;;19.58;;
84121;SDS011;74217;51.106;17.084;2023-11-18T16:36:46;33.03;;;20.27;;
84121;SDS011;74217;51.106;17.084;2023-11-18T16:42:18;22.23;;;14.00;;
84121;SDS011;74217;51.106;17.084;2023-11-18T16:45:04;25.58;;;14.30;;
84121;SDS011;74217;51.106;17.084;2023-11-18T16:47:49;24.10;;;13.50;;
84121;SDS011;74217;51.106;17.084;2023-11-18T16:50:36;24.77;;;14.02;;
84121;SDS011;74217;51.106;17.084;2023-11-18T16:53:21;22.23;;;14.52;;
84121;SDS011;74217;51.106;17.084;2023-11-18T16:56:07;28.08;;;15.05;;
84121;SDS011;74217;51.106;17.084;2023-11-18T16:58:52;26.33;;;16.30;;
84121;SDS011;74217;51.106;17.084;2023-11-18T17:01:38;28.63;;;16.20;;